createdAt,value
2022-12-31T00:00:56.305Z,99.9
2022-12-31T00:02:56.009Z,99.9
2022-12-31T00:04:55.611Z,99.9
2022-12-31T00:06:55.200Z,99.9
2022-12-31T00:08:58.214Z,99.9
2022-12-31T00:10:57.854Z,99.9
2022-12-31T00:12:57.475Z,99.9
2022-12-31T00:14:57.116Z,99.9
2022-12-31T00:16:56.789Z,99.9
2022-12-31T00:18:56.397Z,99.9
2022-12-31T00:20:56.004Z,99.9
2022-12-31T00:22:59.016Z,99.9
2022-12-31T00:24:58.682Z,99.9
2022-12-31T00:26:58.304Z,99.9
2022-12-31T00:29:19.990Z,99.9
2022-12-31T00:31:19.682Z,99.9
2022-12-31T00:33:19.269Z,99.9
2022-12-31T00:35:22.301Z,99.9
2022-12-31T00:37:21.931Z,99.9
2022-12-31T00:39:21.549Z,99.9
2022-12-31T00:43:20.780Z,99.9
2022-12-31T00:45:20.395Z,99.9
2022-12-31T00:47:20.026Z,99.9
2022-12-31T00:49:23.060Z,99.9
2022-12-31T00:51:22.711Z,99.9
2022-12-31T00:53:22.344Z,99.9
2022-12-31T00:55:21.935Z,99.9
2022-12-31T00:57:21.582Z,99.9
2022-12-31T00:59:21.158Z,99.9
2022-12-31T01:09:22.729Z,99.9
2022-12-31T01:11:22.803Z,99.9
2022-12-31T01:15:21.611Z,99.9
2022-12-31T01:17:24.615Z,99.9
2022-12-31T01:22:25.356Z,99.9
2022-12-31T01:24:25.034Z,99.9
2022-12-31T01:26:24.642Z,99.9
2022-12-31T01:28:24.228Z,99.9
2022-12-31T01:30:27.306Z,99.9
2022-12-31T01:32:26.921Z,99.9
2022-12-31T01:34:26.545Z,99.9
2022-12-31T01:36:26.744Z,99.9
2022-12-31T01:38:25.781Z,99.9
2022-12-31T01:40:25.365Z,99.9
2022-12-31T01:42:25.056Z,99.9
2022-12-31T01:44:28.069Z,99.9
2022-12-31T01:54:26.175Z,99.9
2022-12-31T01:56:25.841Z,99.9
2022-12-31T01:58:28.780Z,99.9
2022-12-31T02:00:28.451Z,99.9
2022-12-31T02:02:28.171Z,99.9
2022-12-31T02:04:27.690Z,99.9
2022-12-31T02:06:27.318Z,99.9
2022-12-31T02:08:26.943Z,99.9
2022-12-31T02:10:26.599Z,99.9
2022-12-31T02:12:29.648Z,99.9
2022-12-31T02:14:29.387Z,99.9
2022-12-31T02:16:28.925Z,99.9
2022-12-31T02:19:30.073Z,99.9
2022-12-31T02:21:29.685Z,99.9
2022-12-31T02:23:29.321Z,99.9
2022-12-31T02:25:32.346Z,99.9
2022-12-31T02:27:32.009Z,99.9
2022-12-31T02:29:31.634Z,99.9
2022-12-31T02:31:31.300Z,99.9
2022-12-31T02:33:30.932Z,99.9
2022-12-31T02:35:30.541Z,99.9
2022-12-31T02:37:30.189Z,99.9
2022-12-31T02:39:34.793Z,99.9
2022-12-31T02:41:34.446Z,99.9
2022-12-31T02:45:33.750Z,99.9
2022-12-31T02:47:33.403Z,99.9
2022-12-31T02:49:33.036Z,99.9
2022-12-31T02:53:35.709Z,99.9
2022-12-31T02:55:35.332Z,99.9
2022-12-31T02:57:35.015Z,99.9
2022-12-31T03:01:34.492Z,99.9
2022-12-31T03:03:33.974Z,99.9
2022-12-31T03:05:33.648Z,99.9
2022-12-31T03:07:36.674Z,99.9
2022-12-31T03:09:36.331Z,99.9
2022-12-31T03:12:37.532Z,99.9
2022-12-31T03:14:37.155Z,99.9
2022-12-31T03:16:36.832Z,99.9
2022-12-31T03:18:36.428Z,99.9
2022-12-31T03:20:39.468Z,99.9
2022-12-31T03:22:39.123Z,99.9
2022-12-31T03:24:38.789Z,99.9
2022-12-31T03:26:38.452Z,99.9
2022-12-31T03:28:38.073Z,99.9
2022-12-31T03:30:37.696Z,99.9
2022-12-31T03:32:37.335Z,99.9
2022-12-31T03:34:40.347Z,99.9
2022-12-31T03:36:40.004Z,99.9
2022-12-31T03:38:39.777Z,99.9
2022-12-31T03:40:39.261Z,99.9
2022-12-31T03:42:38.908Z,99.9
2022-12-31T03:44:38.541Z,99.9
2022-12-31T03:46:38.169Z,99.9
2022-12-31T03:48:41.217Z,99.9
2022-12-31T03:50:40.834Z,99.9
2022-12-31T03:52:40.554Z,99.9
2022-12-31T03:54:40.118Z,99.9
2022-12-31T03:56:39.745Z,99.9
2022-12-31T03:58:39.387Z,99.9
2022-12-31T04:00:39.113Z,99.9
2022-12-31T04:02:42.324Z,99.9
2022-12-31T04:04:41.705Z,99.9
2022-12-31T04:06:41.334Z,99.9
2022-12-31T04:09:01.386Z,99.9
2022-12-31T04:11:01.059Z,99.9
2022-12-31T04:13:00.686Z,99.9
2022-12-31T04:15:03.717Z,99.9
2022-12-31T04:17:03.357Z,99.9
2022-12-31T04:19:03.000Z,99.9
2022-12-31T04:21:02.622Z,99.9
2022-12-31T04:23:02.252Z,99.9
2022-12-31T04:25:01.950Z,99.9
2022-12-31T04:27:07.229Z,99.9
2022-12-31T04:33:03.975Z,99.9
2022-12-31T04:35:03.634Z,99.9
2022-12-31T04:37:03.284Z,99.9
2022-12-31T04:39:02.961Z,99.9
2022-12-31T04:41:02.615Z,99.9
2022-12-31T04:43:05.667Z,99.9
2022-12-31T04:45:05.285Z,99.9
2022-12-31T04:47:04.951Z,99.9
2022-12-31T04:53:03.913Z,99.9
2022-12-31T04:55:03.570Z,99.9
2022-12-31T04:57:06.613Z,99.9
2022-12-31T04:59:06.279Z,99.9
2022-12-31T05:01:06.063Z,99.9
2022-12-31T05:02:07.655Z,99.9
2022-12-31T05:04:07.148Z,99.9
2022-12-31T05:08:06.450Z,99.9
2022-12-31T05:10:09.537Z,99.9
2022-12-31T05:12:09.151Z,99.9
2022-12-31T05:14:08.785Z,99.9
2022-12-31T05:16:08.396Z,99.9
2022-12-31T05:18:08.069Z,99.9
2022-12-31T05:22:07.369Z,99.9
2022-12-31T05:24:10.432Z,99.9
2022-12-31T05:26:10.122Z,99.9
2022-12-31T05:28:09.772Z,99.9
2022-12-31T05:32:09.046Z,99.9
2022-12-31T05:34:08.722Z,99.9
2022-12-31T05:36:08.352Z,99.9
2022-12-31T05:38:11.440Z,99.9
2022-12-31T05:40:11.112Z,99.9
2022-12-31T05:42:10.736Z,99.9
2022-12-31T05:44:10.404Z,99.9
2022-12-31T05:48:09.688Z,99.9
2022-12-31T05:50:09.352Z,99.9
2022-12-31T05:52:12.390Z,99.9
2022-12-31T05:54:12.191Z,99.9
2022-12-31T05:56:11.705Z,99.9
2022-12-31T05:57:13.249Z,99.9
2022-12-31T05:59:12.883Z,99.9
2022-12-31T06:01:12.570Z,99.9
2022-12-31T06:03:12.211Z,99.9
2022-12-31T06:05:15.195Z,99.9
2022-12-31T06:07:14.880Z,99.9
2022-12-31T06:09:14.475Z,99.9
2022-12-31T06:11:14.127Z,99.9
2022-12-31T06:13:13.739Z,99.9
2022-12-31T06:15:13.404Z,99.9
2022-12-31T06:17:13.028Z,99.9
2022-12-31T06:19:16.083Z,99.9
2022-12-31T06:21:15.723Z,99.9
2022-12-31T06:25:15.041Z,99.9
2022-12-31T06:27:14.683Z,99.9
2022-12-31T06:29:14.292Z,99.9
2022-12-31T06:31:13.931Z,99.9
2022-12-31T06:35:16.598Z,99.9
2022-12-31T06:45:14.803Z,99.9
2022-12-31T06:51:17.642Z,99.9
2022-12-31T06:54:18.293Z,99.9
2022-12-31T06:56:17.924Z,99.9
2022-12-31T07:00:20.649Z,99.9
2022-12-31T07:02:20.286Z,99.9
2022-12-31T07:04:19.916Z,99.9
2022-12-31T07:06:19.520Z,99.9
2022-12-31T07:08:19.152Z,99.9
2022-12-31T07:10:21.586Z,99.9
2022-12-31T07:14:21.480Z,99.9
2022-12-31T07:18:20.728Z,99.9
2022-12-31T07:20:20.407Z,99.9
2022-12-31T07:22:20.013Z,99.9
2022-12-31T07:24:19.636Z,99.9
2022-12-31T07:26:19.280Z,99.9
2022-12-31T07:28:22.287Z,99.9
2022-12-31T07:30:21.894Z,99.9
2022-12-31T07:32:21.518Z,99.9
2022-12-31T07:34:21.176Z,99.9
2022-12-31T07:36:20.787Z,99.9
2022-12-31T07:38:20.397Z,99.9
2022-12-31T07:40:20.049Z,99.9
2022-12-31T07:42:23.075Z,99.9
2022-12-31T07:44:22.678Z,99.9
2022-12-31T07:46:22.315Z,99.9
2022-12-31T07:48:43.869Z,99.9
2022-12-31T07:50:43.499Z,99.9
2022-12-31T07:52:43.088Z,99.9
2022-12-31T07:54:46.117Z,99.9
2022-12-31T07:56:45.789Z,99.9
2022-12-31T07:58:45.389Z,99.9
2022-12-31T08:00:45.005Z,99.9
2022-12-31T08:02:44.615Z,99.9
2022-12-31T08:04:44.193Z,99.9
2022-12-31T08:06:43.808Z,99.9
2022-12-31T08:08:46.851Z,99.9
2022-12-31T08:10:46.481Z,99.9
2022-12-31T08:12:46.078Z,99.9
2022-12-31T08:14:45.646Z,99.9
2022-12-31T08:16:45.316Z,99.9
2022-12-31T08:18:44.896Z,99.9
2022-12-31T08:20:44.532Z,99.9
2022-12-31T08:22:49.086Z,99.9
2022-12-31T08:24:48.650Z,99.9
2022-12-31T08:26:52.780Z,99.9
2022-12-31T08:28:47.862Z,99.9
2022-12-31T08:32:47.073Z,99.9
2022-12-31T08:34:46.679Z,99.9
2022-12-31T08:36:49.715Z,99.9
2022-12-31T08:38:49.297Z,99.9
2022-12-31T08:40:48.933Z,99.9
2022-12-31T08:41:50.428Z,99.9
2022-12-31T08:43:50.040Z,99.9
2022-12-31T08:45:49.663Z,99.9
2022-12-31T08:47:49.219Z,99.9
2022-12-31T08:49:52.245Z,99.9
2022-12-31T08:51:51.861Z,99.9
2022-12-31T08:53:51.424Z,99.9
2022-12-31T08:55:51.046Z,99.9
2022-12-31T08:59:50.236Z,99.9
2022-12-31T09:01:49.912Z,99.9
2022-12-31T09:03:52.945Z,99.9
2022-12-31T09:05:52.483Z,99.9
2022-12-31T09:07:52.095Z,99.9
2022-12-31T09:17:53.511Z,99.9
2022-12-31T09:21:52.744Z,99.9
2022-12-31T09:23:52.337Z,99.9
2022-12-31T09:25:51.972Z,99.9
2022-12-31T09:29:51.185Z,99.9
2022-12-31T09:31:54.254Z,99.9
2022-12-31T09:33:53.776Z,99.9
2022-12-31T09:35:53.399Z,99.9
2022-12-31T09:36:54.879Z,99.9
2022-12-31T09:38:54.493Z,99.9
2022-12-31T09:40:54.058Z,99.9
2022-12-31T09:42:53.693Z,99.9
2022-12-31T09:44:56.693Z,99.9
2022-12-31T09:46:56.315Z,99.9
2022-12-31T09:48:55.892Z,99.9
2022-12-31T09:50:55.496Z,99.9
2022-12-31T09:52:55.107Z,99.9
2022-12-31T09:54:54.694Z,99.9
2022-12-31T09:56:58.892Z,99.9
2022-12-31T09:58:57.258Z,99.9
2022-12-31T10:02:56.590Z,99.9
2022-12-31T10:04:55.999Z,99.9
2022-12-31T10:06:55.603Z,99.9
2022-12-31T10:08:55.203Z,99.9
2022-12-31T10:10:54.816Z,99.9
2022-12-31T10:12:57.779Z,99.9
2022-12-31T10:14:57.369Z,99.9
2022-12-31T10:16:56.988Z,99.9
2022-12-31T10:18:56.505Z,99.9
2022-12-31T10:22:55.677Z,99.9
2022-12-31T10:24:55.251Z,99.9
2022-12-31T10:30:57.430Z,99.9
2022-12-31T10:31:58.874Z,99.9
2022-12-31T10:33:58.442Z,99.9
2022-12-31T10:35:58.056Z,99.9
2022-12-31T10:37:57.610Z,99.9
2022-12-31T10:40:00.573Z,99.9
2022-12-31T10:49:58.441Z,99.9
2022-12-31T10:51:58.027Z,99.9
2022-12-31T10:54:00.964Z,99.9
2022-12-31T10:59:59.728Z,99.9
2022-12-31T11:01:59.420Z,99.9
2022-12-31T11:03:58.860Z,99.9
2022-12-31T11:05:58.438Z,99.9
2022-12-31T11:08:01.428Z,99.9
2022-12-31T11:10:01.035Z,99.9
2022-12-31T11:12:00.613Z,99.9
2022-12-31T11:14:00.161Z,99.9
2022-12-31T11:17:59.335Z,99.9
2022-12-31T11:19:58.855Z,99.9
2022-12-31T11:22:01.848Z,99.9
2022-12-31T11:24:01.421Z,99.9
2022-12-31T11:26:00.971Z,99.9
2022-12-31T11:28:22.247Z,99.9
2022-12-31T11:30:21.814Z,99.9
2022-12-31T11:32:21.362Z,99.9
2022-12-31T11:34:24.338Z,99.9
2022-12-31T11:36:23.881Z,99.9
2022-12-31T11:38:23.452Z,99.9
2022-12-31T11:40:23.015Z,99.9
2022-12-31T11:42:22.650Z,99.9
2022-12-31T11:44:22.113Z,99.9
2022-12-31T11:46:21.758Z,99.9
2022-12-31T11:48:32.063Z,99.9
2022-12-31T11:50:24.189Z,99.9
2022-12-31T11:52:23.771Z,99.9
2022-12-31T11:54:23.306Z,99.9
2022-12-31T11:56:22.881Z,99.9
2022-12-31T11:58:22.452Z,99.9
2022-12-31T12:00:22.041Z,99.9
2022-12-31T12:02:25.092Z,99.9
2022-12-31T12:04:24.579Z,99.9
2022-12-31T12:06:24.172Z,99.9
2022-12-31T12:08:23.703Z,99.9
2022-12-31T12:10:23.278Z,99.9
2022-12-31T12:12:22.809Z,99.9
2022-12-31T12:14:22.382Z,99.9
2022-12-31T12:16:25.446Z,99.9
2022-12-31T12:20:24.477Z,99.9
2022-12-31T12:21:25.980Z,99.9
2022-12-31T12:27:24.662Z,99.9
2022-12-31T12:31:27.268Z,99.9
2022-12-31T12:33:26.729Z,99.9
2022-12-31T12:35:26.387Z,99.9
2022-12-31T12:39:25.537Z,99.9
2022-12-31T12:41:25.129Z,99.9
2022-12-31T12:45:27.608Z,99.9
2022-12-31T12:47:27.167Z,99.9
2022-12-31T12:49:26.704Z,99.9
2022-12-31T12:51:26.298Z,99.9
2022-12-31T12:55:25.413Z,99.9
2022-12-31T12:57:28.342Z,99.9
2022-12-31T12:59:27.930Z,99.9
2022-12-31T13:01:27.533Z,99.9
2022-12-31T13:05:28.436Z,99.9
2022-12-31T13:07:26.178Z,99.9
2022-12-31T13:09:25.741Z,99.9
2022-12-31T13:11:28.700Z,99.9
2022-12-31T13:13:28.266Z,99.9
2022-12-31T13:15:27.821Z,99.9
2022-12-31T13:20:28.439Z,99.9
2022-12-31T13:22:27.974Z,99.9
2022-12-31T13:24:30.930Z,99.9
2022-12-31T13:26:30.510Z,99.9
2022-12-31T13:28:30.067Z,99.9
2022-12-31T13:30:29.643Z,99.9
2022-12-31T13:32:29.199Z,99.9
2022-12-31T13:34:28.752Z,99.9
2022-12-31T13:36:28.330Z,99.9
2022-12-31T13:38:31.305Z,99.9
2022-12-31T13:40:30.874Z,99.9
2022-12-31T13:42:30.394Z,99.9
2022-12-31T13:46:29.540Z,99.9
2022-12-31T13:48:29.098Z,99.9
2022-12-31T13:50:28.720Z,99.9
2022-12-31T13:52:31.592Z,99.9
2022-12-31T13:54:31.153Z,99.9
2022-12-31T13:56:30.716Z,99.9
2022-12-31T14:04:28.981Z,99.9
2022-12-31T14:08:33.099Z,99.9
2022-12-31T14:11:34.084Z,99.9
2022-12-31T14:13:34.949Z,99.9
2022-12-31T14:15:33.213Z,99.9
2022-12-31T14:17:32.788Z,99.9
2022-12-31T14:19:41.056Z,99.9
2022-12-31T14:21:35.316Z,99.9
2022-12-31T14:23:34.898Z,99.9
2022-12-31T14:25:34.487Z,99.9
2022-12-31T14:27:34.027Z,99.9
2022-12-31T14:29:33.581Z,99.9
2022-12-31T14:31:33.190Z,99.9
2022-12-31T14:33:36.154Z,99.9
2022-12-31T14:35:35.756Z,99.9
2022-12-31T14:37:35.287Z,99.9
2022-12-31T14:39:34.867Z,99.9
2022-12-31T14:41:34.437Z,99.9
2022-12-31T14:43:34.080Z,99.9
2022-12-31T14:45:33.622Z,99.9
2022-12-31T14:47:36.551Z,99.9
2022-12-31T14:49:36.133Z,99.9
2022-12-31T14:51:35.713Z,99.9
2022-12-31T14:53:35.253Z,99.9
2022-12-31T14:55:36.686Z,99.9
2022-12-31T14:57:54.473Z,99.9
2022-12-31T14:59:40.055Z,99.9
2022-12-31T15:01:36.960Z,99.9
2022-12-31T15:03:41.204Z,99.9
2022-12-31T15:05:36.039Z,99.9
2022-12-31T15:07:57.740Z,99.9
2022-12-31T15:09:57.254Z,99.9
2022-12-31T15:11:56.814Z,99.9
2022-12-31T15:13:59.828Z,99.9
2022-12-31T15:15:59.374Z,99.9
2022-12-31T15:17:58.914Z,99.9
2022-12-31T15:19:58.476Z,99.9
2022-12-31T15:21:58.060Z,99.9
2022-12-31T15:23:57.624Z,99.9
2022-12-31T15:25:57.175Z,99.9
2022-12-31T15:28:00.201Z,99.9
2022-12-31T15:29:59.697Z,99.9
2022-12-31T15:31:59.286Z,99.9
2022-12-31T15:37:57.972Z,99.9
2022-12-31T15:49:58.748Z,99.9
2022-12-31T15:51:58.301Z,99.9
2022-12-31T15:53:57.836Z,99.9
2022-12-31T15:56:00.835Z,99.9
2022-12-31T15:58:00.397Z,99.9
2022-12-31T15:59:59.949Z,99.9
2022-12-31T16:03:01.047Z,99.9
2022-12-31T16:09:02.890Z,99.9
2022-12-31T16:11:02.351Z,99.9
2022-12-31T16:13:01.921Z,99.9
2022-12-31T16:15:01.442Z,99.9
2022-12-31T16:17:00.967Z,99.9
2022-12-31T16:19:00.470Z,99.9
2022-12-31T16:20:59.974Z,99.9
2022-12-31T16:23:02.828Z,99.9
2022-12-31T16:25:32.691Z,99.9
2022-12-31T16:27:01.823Z,99.9
2022-12-31T16:29:01.332Z,99.9
2022-12-31T16:31:00.856Z,99.9
2022-12-31T16:33:00.334Z,99.9
2022-12-31T16:34:59.811Z,99.9
2022-12-31T16:37:02.795Z,99.9
2022-12-31T16:39:02.253Z,99.9
2022-12-31T16:41:01.780Z,99.9
2022-12-31T16:43:01.293Z,99.9
2022-12-31T16:45:00.775Z,99.9
2022-12-31T16:47:00.282Z,99.9
2022-12-31T16:48:59.794Z,99.9
2022-12-31T16:51:02.761Z,99.9
2022-12-31T16:53:02.263Z,99.9
2022-12-31T16:55:01.782Z,99.9
2022-12-31T16:58:02.746Z,99.9
2022-12-31T17:00:02.254Z,99.9
2022-12-31T17:02:01.868Z,99.9
2022-12-31T17:04:04.571Z,99.9
2022-12-31T17:06:04.100Z,99.9
2022-12-31T17:08:03.593Z,99.9
2022-12-31T17:10:03.076Z,99.9
2022-12-31T17:12:02.593Z,99.9
2022-12-31T17:14:02.105Z,99.9
2022-12-31T17:16:01.723Z,99.9
2022-12-31T17:18:04.523Z,99.9
2022-12-31T17:20:04.013Z,99.9
2022-12-31T17:22:03.548Z,99.9
2022-12-31T17:24:03.080Z,99.9
2022-12-31T17:26:02.579Z,99.9
2022-12-31T17:28:02.063Z,99.9
2022-12-31T17:30:01.565Z,99.9
2022-12-31T17:32:04.532Z,99.9
2022-12-31T17:34:04.056Z,99.9
2022-12-31T17:36:03.579Z,99.9
2022-12-31T17:38:03.089Z,99.9
2022-12-31T17:40:49.773Z,99.9
2022-12-31T17:42:02.158Z,99.9
2022-12-31T17:44:01.734Z,99.9
2022-12-31T17:50:03.683Z,99.9
2022-12-31T17:51:05.176Z,99.9
2022-12-31T17:53:04.742Z,99.9
2022-12-31T17:55:04.240Z,99.9
2022-12-31T17:57:03.758Z,99.9
2022-12-31T17:59:06.710Z,99.9
2022-12-31T18:01:06.510Z,99.9
2022-12-31T18:03:05.866Z,99.9
2022-12-31T18:05:05.337Z,99.9
2022-12-31T18:13:06.913Z,99.9
2022-12-31T18:15:06.458Z,99.9
2022-12-31T18:17:05.930Z,99.9
2022-12-31T18:19:05.507Z,99.9
2022-12-31T18:21:05.061Z,99.9
2022-12-31T18:23:04.557Z,99.9
2022-12-31T18:25:04.109Z,99.9
2022-12-31T18:27:07.042Z,99.9
2022-12-31T18:29:06.588Z,99.9
2022-12-31T18:33:05.620Z,99.9
2022-12-31T18:35:05.150Z,99.9
2022-12-31T18:37:04.699Z,99.9
2022-12-31T18:39:04.230Z,99.9
2022-12-31T18:47:31.340Z,99.9
2022-12-31T18:49:27.401Z,99.9
2022-12-31T18:51:32.097Z,99.9
2022-12-31T18:53:29.875Z,99.9
2022-12-31T18:55:29.370Z,99.9
2022-12-31T18:57:28.956Z,99.9
2022-12-31T18:59:28.460Z,99.9
2022-12-31T19:01:28.149Z,99.9
2022-12-31T19:03:27.660Z,99.9
2022-12-31T19:05:27.065Z,99.9
2022-12-31T19:07:29.986Z,99.9
2022-12-31T19:09:46.155Z,99.9
2022-12-31T19:11:29.014Z,99.9
2022-12-31T19:13:28.530Z,99.9
2022-12-31T19:15:28.080Z,99.9
2022-12-31T19:17:27.594Z,99.9
2022-12-31T19:19:27.141Z,99.9
2022-12-31T19:21:30.082Z,99.8
2022-12-31T19:23:29.595Z,99.8
2022-12-31T19:25:29.112Z,99.8
2022-12-31T19:27:28.621Z,99.6
2022-12-31T19:29:28.212Z,99.4
2022-12-31T19:31:27.740Z,99.1
2022-12-31T19:35:30.194Z,98.3
2022-12-31T19:39:29.207Z,97.6
2022-12-31T19:40:30.879Z,97.4
2022-12-31T19:42:30.214Z,97.2
2022-12-31T19:44:29.726Z,96.9
2022-12-31T19:46:29.231Z,96.7
2022-12-31T19:50:31.664Z,96.5
2022-12-31T19:52:32.753Z,96.3
2022-12-31T19:58:31.270Z,96.1
2022-12-31T20:00:30.758Z,96
2022-12-31T20:02:33.844Z,95.8
2022-12-31T20:04:33.192Z,95.5
2022-12-31T20:10:31.762Z,95.1
2022-12-31T20:14:30.773Z,95
2022-12-31T20:20:32.757Z,94.7
2022-12-31T20:30:33.838Z,94.1
2022-12-31T20:34:32.846Z,94.1
2022-12-31T20:35:34.305Z,94.2
2022-12-31T20:37:33.812Z,94.1
2022-12-31T20:39:33.374Z,93.9
2022-12-31T20:43:35.809Z,93.3
2022-12-31T20:45:35.309Z,93.1
2022-12-31T20:47:34.873Z,92.9
2022-12-31T20:50:09.297Z,92.9
2022-12-31T20:51:33.920Z,92.9
2022-12-31T20:53:33.480Z,93
2022-12-31T20:55:32.989Z,93.1
2022-12-31T20:57:35.916Z,93
2022-12-31T20:59:35.417Z,92.9
2022-12-31T21:07:33.580Z,92.5
2022-12-31T21:09:33.093Z,92.5
2022-12-31T21:11:36.062Z,92.6
2022-12-31T21:13:35.595Z,92.7
2022-12-31T21:15:35.205Z,92.6
2022-12-31T21:17:34.684Z,92.4
2022-12-31T21:19:34.216Z,92.3
2022-12-31T21:21:33.787Z,92.2
2022-12-31T21:25:36.218Z,91.8
2022-12-31T21:27:35.739Z,91.8
2022-12-31T21:30:37.042Z,91.7
2022-12-31T21:32:36.296Z,91.6
2022-12-31T21:34:35.804Z,91.6
2022-12-31T21:36:35.457Z,91.5
2022-12-31T21:38:38.320Z,91.4
2022-12-31T21:40:37.848Z,91.4
2022-12-31T21:42:37.347Z,91.3
2022-12-31T21:44:36.886Z,91.2
2022-12-31T21:46:36.458Z,91
2022-12-31T21:48:35.936Z,90.9
2022-12-31T21:52:38.470Z,91.1
2022-12-31T21:56:37.467Z,91.9
2022-12-31T21:58:37.006Z,93.3
2022-12-31T22:02:36.150Z,94.8
2022-12-31T22:05:01.436Z,94.9
2022-12-31T22:08:38.056Z,95.3
2022-12-31T22:10:38.428Z,95.5
2022-12-31T22:12:37.192Z,95.2
2022-12-31T22:14:36.661Z,95.3
2022-12-31T22:16:36.279Z,95.2
2022-12-31T22:18:35.949Z,95.1
2022-12-31T22:20:38.723Z,94.6
2022-12-31T22:22:38.277Z,94.4
2022-12-31T22:24:37.813Z,93.9
2022-12-31T22:26:59.311Z,93.4
2022-12-31T22:28:58.896Z,93.3
2022-12-31T22:30:58.453Z,93.2
2022-12-31T22:33:01.362Z,93.5
2022-12-31T22:35:00.906Z,93.6
2022-12-31T22:37:14.349Z,93.8
2022-12-31T22:39:00.012Z,93.9
2022-12-31T22:42:59.076Z,94.1
2022-12-31T22:44:58.631Z,94.1
2022-12-31T22:47:01.617Z,94
2022-12-31T22:49:01.148Z,93.8
2022-12-31T22:51:00.630Z,94.3
2022-12-31T22:53:00.163Z,94.2
2022-12-31T22:54:59.689Z,94.4
2022-12-31T22:56:59.243Z,94.4
2022-12-31T23:03:01.292Z,93.8
2022-12-31T23:05:14.717Z,99.6
2022-12-31T23:07:00.322Z,99.8
2022-12-31T23:08:59.825Z,99.2
2022-12-31T23:12:58.940Z,98.2
2022-12-31T23:15:01.926Z,98.3
2022-12-31T23:20:02.474Z,99
2022-12-31T23:22:02.026Z,99.1
2022-12-31T23:24:01.540Z,99.2
2022-12-31T23:26:01.107Z,99.2
2022-12-31T23:28:04.078Z,98.7
2022-12-31T23:30:03.612Z,98.6
2022-12-31T23:38:01.821Z,96.7
2022-12-31T23:40:01.447Z,96.2
2022-12-31T23:44:03.953Z,94.4
2022-12-31T23:46:03.504Z,94
2022-12-31T23:48:03.043Z,93.6
2022-12-31T23:50:02.713Z,93.2
2022-12-31T23:52:02.177Z,93
2022-12-31T23:54:01.693Z,92.7
2022-12-31T23:56:09.570Z,92.1
2022-12-31T23:58:04.199Z,91.9
